Time;durP1;ratioP1;P1;durP2;ratioP2;P2;SDS_P1;SDS_P2;PMS_P1;PMS_P2;Temp;Humidity;BMP_temperature;BMP_pressure;BME280_temperature;BME280_humidity;BME280_pressure;Samples;Min_cycle;Max_cycle;Signal;HPM_P1;HPM_P2
2021/03/06 00:00:08;;;;;;;3.87;1.80;;;4.00;1.00;;;;;;5071830;28;20205;-84
2021/03/06 00:02:34;;;;;;;5.37;1.97;;;4.00;99.90;;;;;;5066577;28;20752;-84
2021/03/06 00:05:01;;;;;;;5.53;2.20;;;4.00;1.00;;;;;;5037358;28;20332;-84
2021/03/06 00:07:28;;;;;;;6.10;2.00;;;4.00;1.00;;;;;;5051758;28;20215;-82
2021/03/06 00:09:54;;;;;;;5.00;1.83;;;4.10;1.00;;;;;;5038914;28;20334;-84
2021/03/06 00:12:21;;;;;;;7.90;2.20;;;4.00;1.00;;;;;;5057164;28;20516;-83
2021/03/06 00:14:48;;;;;;;5.47;2.13;;;4.00;28.50;;;;;;5056067;28;20197;-83
2021/03/06 00:17:14;;;;;;;3.50;1.80;;;4.00;99.90;;;;;;5048179;28;20262;-82
2021/03/06 00:19:41;;;;;;;8.10;2.23;;;4.00;99.90;;;;;;5050017;28;20289;-84
2021/03/06 00:22:07;;;;;;;2.93;1.80;;;3.90;99.90;;;;;;5065640;28;20623;-84
2021/03/06 00:24:34;;;;;;;4.87;2.10;;;3.90;99.90;;;;;;5053497;28;20267;-84
2021/03/06 00:27:00;;;;;;;8.17;2.53;;;3.80;99.90;;;;;;5061170;28;20289;-84
2021/03/06 00:29:28;;;;;;;2.70;2.00;;;4.00;99.90;;;;;;5062060;28;20612;-83
2021/03/06 00:31:54;;;;;;;3.80;2.00;;;4.00;99.90;;;;;;5050108;28;20227;-82
2021/03/06 00:34:21;;;;;;;6.83;2.03;;;4.00;99.90;;;;;;5049849;28;20255;-84
2021/03/06 00:36:48;;;;;;;3.10;1.83;;;3.90;99.90;;;;;;5067113;28;20652;-83
2021/03/06 00:39:15;;;;;;;4.13;1.67;;;4.00;99.90;;;;;;5048623;28;20231;-84
2021/03/06 00:41:41;;;;;;;7.77;1.87;;;4.00;99.90;;;;;;5064585;28;20265;-80
2021/03/06 00:44:08;;;;;;;3.97;2.00;;;3.90;99.90;;;;;;5044104;28;20215;-84
2021/03/06 00:46:34;;;;;;;3.07;1.80;;;4.00;99.90;;;;;;5050627;28;20560;-83
2021/03/06 00:49:01;;;;;;;5.13;1.90;;;3.90;99.90;;;;;;5046369;28;20194;-82
2021/03/06 00:51:28;;;;;;;4.17;1.50;;;4.00;99.90;;;;;;5049012;28;20236;-83
2021/03/06 00:54:06;;;;;;;5.40;2.23;;;4.00;99.90;;;;;;5060373;28;20212;-83
2021/03/06 00:56:32;;;;;;;4.93;2.40;;;4.00;99.90;;;;;;5048274;28;20213;-82
2021/03/06 00:58:58;;;;;;;6.07;2.87;;;3.90;99.90;;;;;;5044889;28;20697;-83
2021/03/06 01:01:25;;;;;;;6.93;2.47;;;3.90;99.90;;;;;;5044859;28;20571;-81
2021/03/06 01:03:52;;;;;;;3.13;1.77;;;3.80;99.90;;;;;;5059810;28;20227;-84
2021/03/06 01:06:18;;;;;;;5.67;1.70;;;3.90;99.90;;;;;;5032998;28;20220;-83
2021/03/06 01:08:45;;;;;;;10.53;2.20;;;3.80;99.90;;;;;;5041988;28;20227;-85
2021/03/06 01:11:11;;;;;;;6.30;2.03;;;3.70;99.90;;;;;;5059729;28;20290;-83
2021/03/06 01:13:38;;;;;;;3.27;1.80;;;3.80;99.90;;;;;;5031483;28;20205;-84
2021/03/06 01:16:04;;;;;;;5.13;1.73;;;3.80;99.90;;;;;;5040852;28;20196;-83
2021/03/06 01:18:31;;;;;;;7.17;2.60;;;3.80;99.90;;;;;;5058635;28;20211;-82
2021/03/06 01:20:57;;;;;;;5.50;2.50;;;3.90;99.90;;;;;;5047364;28;20544;-81
2021/03/06 01:23:24;;;;;;;2.93;2.17;;;3.70;99.90;;;;;;5052289;28;20202;-84
2021/03/06 01:25:50;;;;;;;8.03;2.70;;;3.80;99.90;;;;;;5067066;28;20212;-83
2021/03/06 01:28:17;;;;;;;5.97;2.07;;;3.50;99.90;;;;;;5043843;28;20629;-82
2021/03/06 01:30:43;;;;;;;6.93;2.13;;;3.50;99.90;;;;;;5064506;28;20261;-84
2021/03/06 01:33:10;;;;;;;5.97;2.20;;;3.40;99.90;;;;;;5028662;28;20200;-82
2021/03/06 01:35:36;;;;;;;2.57;1.37;;;3.60;99.90;;;;;;5050533;28;20222;-83
2021/03/06 01:38:03;;;;;;;2.90;1.97;;;3.50;99.90;;;;;;5034717;28;20207;-84
2021/03/06 01:40:37;;;;;;;3.43;1.80;;;3.40;99.90;;;;;;5062819;28;20577;-83
2021/03/06 01:43:17;;;;;;;4.00;2.33;;;3.40;99.90;;;;;;5044962;28;20204;-82
2021/03/06 01:45:43;;;;;;;10.03;2.00;;;3.40;99.90;;;;;;5041865;28;20208;-81
2021/03/06 01:48:11;;;;;;;3.60;1.77;;;3.60;99.90;;;;;;5041352;28;20220;-82
2021/03/06 01:50:40;;;;;;;5.67;1.97;;;3.70;99.90;;;;;;5045866;28;20529;-81
2021/03/06 01:53:10;;;;;;;5.10;2.13;;;3.60;99.90;;;;;;5058809;28;20272;-83
2021/03/06 01:55:40;;;;;;;3.53;2.87;;;3.40;99.90;;;;;;5065200;28;20218;-81
2021/03/06 01:58:06;;;;;;;11.43;2.23;;;3.30;99.90;;;;;;5065368;28;20343;-80
2021/03/06 02:00:33;;;;;;;6.60;1.57;;;3.40;99.90;;;;;;5048066;28;20200;-82
2021/03/06 02:03:00;;;;;;;4.87;1.70;;;3.40;99.90;;;;;;5038408;28;20202;-83
2021/03/06 02:05:28;;;;;;;3.90;1.83;;;3.30;99.90;;;;;;5042060;28;20279;-83
2021/03/06 02:07:54;;;;;;;2.43;1.60;;;3.40;99.90;;;;;;5063632;28;20208;-81
2021/03/06 02:10:31;;;;;;;2.73;1.70;;;3.10;99.90;;;;;;5064322;28;20285;-83
2021/03/06 02:13:22;;;;;;;6.20;2.30;;;3.20;99.90;;;;;;5070364;28;20233;-84
2021/03/06 02:16:04;;;;;;;4.03;1.93;;;3.30;99.90;;;;;;5066793;28;20208;-84
2021/03/06 02:19:09;;;;;;;7.03;1.80;;;3.30;99.90;;;;;;5067400;28;20208;-84
2021/03/06 02:21:48;;;;;;;3.07;1.40;;;3.30;99.90;;;;;;5036002;28;20302;-83
2021/03/06 02:24:29;;;;;;;3.80;1.90;;;3.30;99.90;;;;;;5064080;28;20491;-82
2021/03/06 02:27:14;;;;;;;6.73;2.27;;;3.20;99.90;;;;;;5062658;28;20305;-83
2021/03/06 02:29:54;;;;;;;5.03;2.33;;;3.20;99.90;;;;;;5052833;28;20219;-85
2021/03/06 02:32:31;;;;;;;2.60;1.90;;;3.20;99.90;;;;;;5066884;28;20268;-80
2021/03/06 02:35:12;;;;;;;3.40;1.63;;;3.10;99.90;;;;;;5066387;28;20211;-85
2021/03/06 02:37:44;;;;;;;6.23;2.30;;;3.20;99.90;;;;;;5068473;28;20201;-85
2021/03/06 02:40:13;;;;;;;4.53;2.87;;;3.10;99.90;;;;;;5059571;28;20230;-85
2021/03/06 02:42:42;;;;;;;4.40;2.03;;;3.00;99.90;;;;;;5046080;28;20207;-80
2021/03/06 02:45:09;;;;;;;7.03;1.90;;;3.00;99.90;;;;;;5059431;28;20248;-86
2021/03/06 02:47:37;;;;;;;8.77;1.83;;;3.10;99.90;;;;;;5048701;28;20260;-83
2021/03/06 02:50:07;;;;;;;3.80;1.90;;;3.10;99.90;;;;;;5037079;28;20684;-80
2021/03/06 02:52:34;;;;;;;6.90;2.23;;;3.20;99.90;;;;;;5068613;28;20980;-84
2021/03/06 02:55:00;;;;;;;6.80;2.03;;;3.10;99.90;;;;;;5040447;28;20338;-85
2021/03/06 02:57:31;;;;;;;8.67;2.40;;;3.00;99.90;;;;;;5065378;28;20209;-84
2021/03/06 03:00:04;;;;;;;5.27;1.83;;;3.00;99.90;;;;;;5067307;28;20287;-80
2021/03/06 03:02:45;;;;;;;4.60;2.13;;;3.00;99.90;;;;;;5061115;28;20208;-81
2021/03/06 03:05:27;;;;;;;4.10;1.83;;;3.00;99.90;;;;;;5065884;28;20204;-85
2021/03/06 03:08:10;;;;;;;2.30;1.97;;;2.90;99.90;;;;;;5059285;28;20229;-85
2021/03/06 03:10:43;;;;;;;3.97;2.27;;;2.90;99.90;;;;;;5046795;28;20236;-85
2021/03/06 03:13:19;;;;;;;8.63;1.80;;;2.80;99.90;;;;;;5065813;28;20204;-85
2021/03/06 03:15:50;;;;;;;10.17;2.13;;;2.80;99.90;;;;;;5044995;28;20195;-85
2021/03/06 03:18:25;;;;;;;7.50;2.40;;;2.80;99.90;;;;;;5059589;28;20213;-81
2021/03/06 03:20:55;;;;;;;5.40;2.03;;;2.80;99.90;;;;;;5048870;28;20285;-84
2021/03/06 03:23:28;;;;;;;5.87;2.33;;;2.80;99.90;;;;;;5054190;28;20216;-83
2021/03/06 03:26:09;;;;;;;3.57;1.93;;;2.80;99.90;;;;;;5052970;28;20205;-84
2021/03/06 03:28:37;;;;;;;3.83;2.23;;;2.70;99.90;;;;;;5046975;28;20290;-83
2021/03/06 03:31:04;;;;;;;3.57;2.17;;;2.60;99.90;;;;;;5062783;28;20517;-83
2021/03/06 03:33:33;;;;;;;3.13;2.33;;;2.70;99.90;;;;;;5044169;28;20280;-82
2021/03/06 03:36:03;;;;;;;6.13;2.03;;;2.60;99.90;;;;;;5066644;28;20272;-83
2021/03/06 03:38:30;;;;;;;8.63;2.47;;;2.60;99.90;;;;;;5057669;28;20219;-81
2021/03/06 03:40:58;;;;;;;5.67;2.20;;;2.70;99.90;;;;;;5046387;28;20230;-82
2021/03/06 03:43:26;;;;;;;3.00;2.30;;;2.70;99.90;;;;;;5042224;28;20253;-86
2021/03/06 03:45:53;;;;;;;5.10;2.23;;;2.70;99.90;;;;;;5041801;28;20204;-85
2021/03/06 03:48:21;;;;;;;7.17;2.17;;;2.80;99.90;;;;;;5051761;28;20215;-85
2021/03/06 03:50:48;;;;;;;6.40;2.23;;;2.70;99.90;;;;;;5064350;28;20211;-85
2021/03/06 03:53:16;;;;;;;5.83;2.37;;;2.60;99.90;;;;;;5036989;28;20287;-84
2021/03/06 03:55:43;;;;;;;4.90;2.27;;;2.60;99.90;;;;;;5044054;28;20196;-86
2021/03/06 03:58:10;;;;;;;5.33;2.20;;;2.60;99.90;;;;;;5048201;28;20276;-86
2021/03/06 04:00:37;;;;;;;3.50;1.80;;;2.70;99.90;;;;;;5064798;28;20211;-83
2021/03/06 04:03:05;;;;;;;3.60;2.27;;;2.70;99.90;;;;;;5062576;28;20332;-86
2021/03/06 04:05:32;;;;;;;11.07;2.87;;;2.80;99.90;;;;;;5064815;28;20195;-86
2021/03/06 04:07:59;;;;;;;4.17;2.67;;;2.80;99.90;;;;;;5060478;28;20215;-86
2021/03/06 04:10:27;;;;;;;3.53;2.07;;;2.70;99.90;;;;;;5062939;28;20231;-80
2021/03/06 04:12:54;;;;;;;5.13;2.00;;;2.70;99.90;;;;;;5049317;28;20208;-86
2021/03/06 04:15:22;;;;;;;5.83;2.83;;;2.70;99.90;;;;;;5046161;28;20232;-84
2021/03/06 04:17:49;;;;;;;2.70;2.10;;;2.60;99.90;;;;;;5047553;28;20276;-86
2021/03/06 04:20:19;;;;;;;2.90;1.80;;;2.70;99.90;;;;;;5049982;28;20199;-86
2021/03/06 04:22:46;;;;;;;3.17;2.23;;;2.60;99.90;;;;;;5048147;28;20233;-85
2021/03/06 04:25:13;;;;;;;10.03;2.67;;;2.70;99.90;;;;;;5063245;28;20272;-86
2021/03/06 04:27:40;;;;;;;6.83;2.50;;;2.70;99.90;;;;;;5048295;28;20222;-86
2021/03/06 04:30:08;;;;;;;5.93;2.47;;;2.70;99.90;;;;;;5059769;28;20207;-86
2021/03/06 04:32:36;;;;;;;4.77;2.30;;;2.80;99.90;;;;;;5043658;28;20197;-84
2021/03/06 04:35:04;;;;;;;7.30;2.60;;;2.80;99.90;;;;;;5062167;28;20213;-84
2021/03/06 04:37:30;;;;;;;3.50;2.37;;;2.70;99.90;;;;;;5052260;28;20212;-85
2021/03/06 04:39:56;;;;;;;4.70;2.13;;;2.70;99.90;;;;;;5048127;28;20660;-85
2021/03/06 04:42:23;;;;;;;7.07;2.77;;;2.60;99.90;;;;;;5049387;28;20200;-85
2021/03/06 04:44:49;;;;;;;4.20;2.87;;;2.60;99.90;;;;;;5052507;28;20227;-83
2021/03/06 04:47:17;;;;;;;7.23;2.43;;;2.60;99.90;;;;;;5052128;28;20296;-84
2021/03/06 04:49:44;;;;;;;9.20;2.77;;;2.60;99.90;;;;;;5041917;28;20197;-85
2021/03/06 04:52:13;;;;;;;9.17;2.97;;;2.70;99.90;;;;;;5045950;28;20291;-86
2021/03/06 04:54:40;;;;;;;3.23;2.73;;;2.70;99.90;;;;;;5064409;28;20561;-84
2021/03/06 04:57:12;;;;;;;8.40;2.67;;;2.60;99.90;;;;;;5050474;28;20203;-85
2021/03/06 04:59:41;;;;;;;4.60;3.00;;;2.60;99.90;;;;;;5057617;28;20522;-86
2021/03/06 05:02:07;;;;;;;3.43;2.70;;;2.60;99.90;;;;;;5048591;28;20360;-81
2021/03/06 05:04:34;;;;;;;13.70;2.97;;;2.50;99.90;;;;;;5065260;28;20238;-85
2021/03/06 05:07:00;;;;;;;4.10;2.40;;;2.50;99.90;;;;;;5049897;28;20215;-83
2021/03/06 05:09:27;;;;;;;5.73;3.13;;;2.50;99.90;;;;;;5046955;28;20293;-85
2021/03/06 05:11:53;;;;;;;3.30;2.30;;;2.40;99.90;;;;;;5046504;28;20231;-84
2021/03/06 05:14:20;;;;;;;3.80;2.47;;;2.30;99.90;;;;;;5059531;28;20208;-85
2021/03/06 05:16:46;;;;;;;4.33;2.33;;;2.30;99.90;;;;;;5061990;28;20220;-85
2021/03/06 05:19:13;;;;;;;5.30;1.70;;;2.40;99.90;;;;;;5043229;28;20210;-83
2021/03/06 05:21:39;;;;;;;4.33;2.63;;;2.40;99.90;;;;;;5033239;28;20662;-85
2021/03/06 05:24:06;;;;;;;4.70;2.00;;;2.40;99.90;;;;;;5050081;28;20206;-84
2021/03/06 05:26:33;;;;;;;6.73;2.20;;;2.40;99.90;;;;;;5056788;28;20494;-84
2021/03/06 05:29:00;;;;;;;5.57;2.43;;;2.40;99.90;;;;;;5061705;28;20217;-79
2021/03/06 05:31:28;;;;;;;6.37;2.67;;;2.60;99.90;;;;;;5062965;28;20677;-84
2021/03/06 05:33:55;;;;;;;5.03;2.20;;;2.50;99.90;;;;;;5064243;28;20602;-84
2021/03/06 05:36:21;;;;;;;4.67;2.43;;;2.60;99.90;;;;;;5039356;28;20208;-85
2021/03/06 05:38:47;;;;;;;4.83;2.43;;;2.40;99.90;;;;;;5064513;28;20213;-87
2021/03/06 05:41:18;;;;;;;4.07;2.83;;;2.40;99.90;;;;;;5059920;28;20220;-83
2021/03/06 05:43:45;;;;;;;4.83;2.63;;;2.40;99.90;;;;;;5065438;28;20234;-85
2021/03/06 05:46:13;;;;;;;10.30;2.47;;;2.30;99.90;;;;;;5066710;28;20207;-84
2021/03/06 05:48:40;;;;;;;9.50;2.97;;;2.40;99.90;;;;;;5067830;28;20222;-84
2021/03/06 05:51:07;;;;;;;5.13;2.90;;;2.40;99.90;;;;;;5066411;28;20264;-83
2021/03/06 05:53:34;;;;;;;6.47;2.53;;;2.30;99.90;;;;;;5065116;28;20329;-83
2021/03/06 05:56:02;;;;;;;5.70;3.10;;;2.30;99.90;;;;;;5064184;28;20264;-83
2021/03/06 05:58:31;;;;;;;9.20;2.37;;;2.40;99.90;;;;;;5061797;28;20290;-84
2021/03/06 06:01:00;;;;;;;7.17;2.50;;;2.40;99.90;;;;;;5063203;28;20211;-85
2021/03/06 06:03:27;;;;;;;6.30;2.70;;;2.50;99.90;;;;;;5064601;28;20214;-85
2021/03/06 06:05:54;;;;;;;12.20;2.77;;;2.40;99.90;;;;;;5066232;28;20202;-84
2021/03/06 06:08:20;;;;;;;5.33;2.43;;;2.30;99.90;;;;;;5044718;28;22193;-86
2021/03/06 06:10:47;;;;;;;6.07;3.20;;;2.10;99.90;;;;;;5067986;28;20327;-86
2021/03/06 06:13:14;;;;;;;3.93;2.97;;;2.10;99.90;;;;;;5034107;28;20623;-86
2021/03/06 06:15:40;;;;;;;4.03;2.77;;;2.20;99.90;;;;;;5052057;28;20245;-83
2021/03/06 06:18:07;;;;;;;5.17;2.80;;;2.10;99.90;;;;;;5036599;28;20250;-82
2021/03/06 06:20:37;;;;;;;7.57;3.00;;;2.20;99.90;;;;;;5052777;28;20289;-84
2021/03/06 06:23:13;;;;;;;3.77;2.40;;;2.20;99.90;;;;;;5062617;28;20509;-85
2021/03/06 06:25:43;;;;;;;8.60;2.67;;;2.20;99.90;;;;;;5065216;28;20655;-87
2021/03/06 06:28:18;;;;;;;5.00;3.03;;;2.20;99.90;;;;;;5053856;28;20246;-83
2021/03/06 06:31:07;;;;;;;5.83;2.50;;;2.20;99.90;;;;;;5046463;28;20572;-86
2021/03/06 06:33:34;;;;;;;6.37;2.23;;;2.20;99.90;;;;;;5055911;28;20201;-85
2021/03/06 06:36:00;;;;;;;5.67;2.57;;;2.10;99.90;;;;;;5055519;28;20218;-85
2021/03/06 06:38:41;;;;;;;4.63;2.10;;;2.30;99.90;;;;;;5053579;28;20567;-85
2021/03/06 06:41:07;;;;;;;5.10;2.67;;;2.30;99.90;;;;;;5050700;28;20206;-78
2021/03/06 06:43:33;;;;;;;6.80;2.50;;;2.30;99.90;;;;;;5067177;28;20298;-84
2021/03/06 06:46:00;;;;;;;5.73;2.90;;;2.30;99.90;;;;;;5063051;28;20279;-83
2021/03/06 06:48:26;;;;;;;9.23;2.90;;;2.30;99.90;;;;;;5063074;28;20246;-82
2021/03/06 06:51:09;;;;;;;7.20;3.23;;;2.40;99.90;;;;;;5052000;28;20241;-84
2021/03/06 06:53:35;;;;;;;4.47;2.60;;;2.40;99.90;;;;;;5044418;28;20215;-84
2021/03/06 06:56:02;;;;;;;6.17;2.80;;;2.50;99.90;;;;;;5028734;28;20285;-85
2021/03/06 06:58:42;;;;;;;11.10;2.90;;;2.40;99.90;;;;;;5050463;28;20206;-84
2021/03/06 07:01:31;;;;;;;7.17;2.80;;;2.50;99.90;;;;;;5048320;28;20287;-83
2021/03/06 07:04:16;;;;;;;6.30;2.87;;;2.60;99.90;;;;;;5062937;28;20214;-86
2021/03/06 07:06:57;;;;;;;10.07;3.30;;;2.90;99.90;;;;;;5067647;28;20629;-86
2021/03/06 07:09:24;;;;;;;7.43;3.10;;;3.00;99.90;;;;;;5051871;28;20221;-84
2021/03/06 07:11:50;;;;;;;5.90;3.00;;;3.00;99.90;;;;;;5064192;28;20199;-86
2021/03/06 07:14:36;;;;;;;8.83;3.00;;;3.00;99.90;;;;;;5054038;28;20215;-86
2021/03/06 07:17:04;;;;;;;16.17;3.30;;;3.10;99.90;;;;;;5052437;28;20208;-85
2021/03/06 07:19:32;;;;;;;6.60;2.77;;;3.30;99.90;;;;;;5050874;28;20290;-86
2021/03/06 07:21:59;;;;;;;5.97;3.00;;;3.30;99.90;;;;;;5057908;28;20265;-85
2021/03/06 07:24:26;;;;;;;6.27;2.93;;;3.30;99.90;;;;;;5067989;28;20679;-84
2021/03/06 07:26:53;;;;;;;3.90;2.40;;;3.40;99.90;;;;;;5049560;28;20541;-83
2021/03/06 07:29:23;;;;;;;6.50;2.60;;;3.50;99.90;;;;;;5064388;28;20253;-85
2021/03/06 07:31:52;;;;;;;5.63;4.33;;;3.40;99.90;;;;;;5053279;28;20681;-85
2021/03/06 07:34:20;;;;;;;4.43;2.87;;;3.50;99.90;;;;;;5052828;28;20200;-85
2021/03/06 07:36:48;;;;;;;5.17;2.67;;;3.40;99.90;;;;;;5056646;28;20588;-86
2021/03/06 07:39:17;;;;;;;6.37;2.87;;;3.50;99.90;;;;;;5051740;28;20616;-85
2021/03/06 07:41:53;;;;;;;9.53;2.87;;;3.70;99.90;;;;;;5064582;28;20204;-82
2021/03/06 07:44:23;;;;;;;3.30;2.57;;;3.80;99.90;;;;;;5064908;28;20218;-84
2021/03/06 07:46:51;;;;;;;6.13;2.73;;;4.10;99.90;;;;;;5066543;28;20216;-85
2021/03/06 07:49:22;;;;;;;5.60;3.20;;;4.10;99.90;;;;;;5064788;28;20216;-84
2021/03/06 07:51:48;;;;;;;4.47;3.10;;;4.10;99.90;;;;;;5044630;28;20201;-85
2021/03/06 07:54:15;;;;;;;5.07;3.07;;;4.30;99.90;;;;;;5035712;28;20228;-84
2021/03/06 07:56:42;;;;;;;2.90;2.40;;;4.60;99.90;;;;;;5063384;28;20260;-84
2021/03/06 07:59:47;;;;;;;5.90;2.93;;;4.40;99.90;;;;;;5049283;28;20335;-85
2021/03/06 08:02:33;;;;;;;5.97;3.40;;;4.70;99.90;;;;;;5062147;28;20241;-84
2021/03/06 08:05:45;;;;;;;3.77;2.80;;;5.00;99.90;;;;;;5064535;28;20234;-84
2021/03/06 08:08:35;;;;;;;5.50;2.87;;;5.70;99.90;;;;;;5063137;28;20699;-84
2021/03/06 08:11:15;;;;;;;7.70;2.73;;;5.70;99.90;;;;;;5051812;28;20244;-85
2021/03/06 08:13:51;;;;;;;6.63;2.83;;;5.80;99.90;;;;;;5034229;28;20590;-85
2021/03/06 08:16:23;;;;;;;3.57;2.40;;;5.70;99.90;;;;;;5048588;28;20208;-84
2021/03/06 08:19:00;;;;;;;8.20;2.83;;;5.80;99.90;;;;;;5063126;28;20229;-84
2021/03/06 08:21:32;;;;;;;4.17;2.43;;;6.20;99.90;;;;;;5060601;28;22794;-84
2021/03/06 08:24:15;;;;;;;4.33;2.33;;;6.40;99.90;;;;;;5064318;28;20196;-84
2021/03/06 08:26:57;;;;;;;6.00;2.37;;;6.40;99.90;;;;;;5061337;28;20206;-84
2021/03/06 08:29:40;;;;;;;5.40;2.60;;;6.90;99.90;;;;;;5055959;28;20213;-83
2021/03/06 08:32:19;;;;;;;5.57;2.53;;;7.30;99.90;;;;;;5051955;28;21000;-84
2021/03/06 08:34:48;;;;;;;5.00;2.50;;;7.50;99.90;;;;;;5054160;28;20286;-81
2021/03/06 08:37:21;;;;;;;5.13;2.13;;;7.60;99.90;;;;;;5059772;28;20285;-83
2021/03/06 08:39:58;;;;;;;4.20;2.60;;;7.70;99.90;;;;;;5056957;28;20260;-73
2021/03/06 08:42:56;;;;;;;4.30;2.33;;;8.00;99.90;;;;;;5045833;28;20317;-74
2021/03/06 08:45:23;;;;;;;4.43;2.23;;;8.50;99.90;;;;;;5053749;28;20219;-74
2021/03/06 08:48:01;;;;;;;4.53;1.93;;;8.50;99.90;;;;;;5055245;28;20701;-74
2021/03/06 08:50:30;;;;;;;2.50;1.90;;;8.90;99.90;;;;;;5056840;28;20207;-73
2021/03/06 08:52:58;;;;;;;3.70;2.20;;;8.90;99.90;;;;;;5056025;28;20236;-74
2021/03/06 08:55:27;;;;;;;5.17;2.00;;;9.30;99.90;;;;;;5058835;28;20232;-74
2021/03/06 08:57:54;;;;;;;9.13;2.17;;;9.50;99.90;;;;;;5043838;28;20252;-73
2021/03/06 09:00:27;;;;;;;5.73;1.43;;;9.80;99.30;;;;;;5039498;28;20350;-73
2021/03/06 09:02:55;;;;;;;7.97;2.03;;;9.40;98.60;;;;;;5032483;28;20561;-74
2021/03/06 09:05:21;;;;;;;4.07;1.20;;;9.30;99.20;;;;;;5055526;28;20206;-74
2021/03/06 09:07:50;;;;;;;3.17;1.40;;;9.60;98.60;;;;;;5053706;28;20222;-74
2021/03/06 09:10:49;;;;;;;3.53;2.07;;;10.00;96.10;;;;;;5043413;28;20310;-74
2021/03/06 09:13:18;;;;;;;3.73;1.30;;;9.60;96.20;;;;;;5038773;28;20286;-74
2021/03/06 09:15:53;;;;;;;2.90;1.20;;;9.60;95.40;;;;;;5053160;28;20199;-73
2021/03/06 09:18:22;;;;;;;2.27;1.10;;;9.50;96.50;;;;;;5037442;28;20206;-74
2021/03/06 09:20:52;;;;;;;4.37;1.37;;;10.20;95.50;;;;;;5055511;28;20196;-73
2021/03/06 09:23:26;;;;;;;1.80;0.83;;;10.00;94.60;;;;;;5058994;28;20203;-73
2021/03/06 09:25:53;;;;;;;2.30;1.47;;;10.10;94.30;;;;;;5056502;28;20214;-74
2021/03/06 09:28:25;;;;;;;2.93;0.87;;;10.30;93.80;;;;;;5041316;28;20314;-74
2021/03/06 09:30:52;;;;;;;4.53;0.93;;;10.30;92.90;;;;;;5057797;28;20264;-74
2021/03/06 09:33:32;;;;;;;4.33;0.80;;;10.60;91.30;;;;;;5056903;28;20290;-73
2021/03/06 09:36:08;;;;;;;1.37;0.53;;;10.50;90.30;;;;;;5058319;28;20231;-74
2021/03/06 09:38:59;;;;;;;3.77;0.90;;;9.90;89.90;;;;;;5060838;28;20604;-74
2021/03/06 09:41:37;;;;;;;4.83;0.93;;;10.00;91.80;;;;;;5057052;28;20298;-75
2021/03/06 09:44:05;;;;;;;1.33;0.73;;;10.40;90.00;;;;;;5041853;28;20219;-74
2021/03/06 09:46:34;;;;;;;2.90;0.90;;;10.00;88.30;;;;;;5056932;28;20704;-74
2021/03/06 09:49:03;;;;;;;2.00;0.70;;;10.00;90.10;;;;;;5056924;28;20254;-74
2021/03/06 09:51:42;;;;;;;3.33;0.80;;;9.90;88.90;;;;;;5043530;28;20272;-74
2021/03/06 09:54:11;;;;;;;2.00;0.73;;;9.80;90.40;;;;;;5057230;28;20205;-73
2021/03/06 09:57:00;;;;;;;3.60;0.90;;;10.30;90.80;;;;;;5044593;28;20616;-74
2021/03/06 09:59:29;;;;;;;3.67;0.80;;;10.40;89.60;;;;;;5059802;28;20747;-74
2021/03/06 10:02:04;;;;;;;3.33;1.13;;;11.00;88.30;;;;;;5056884;28;20199;-74
2021/03/06 10:04:31;;;;;;;4.37;0.80;;;11.20;88.00;;;;;;5056573;28;20200;-74
2021/03/06 10:06:59;;;;;;;3.20;0.90;;;10.80;82.30;;;;;;5058915;28;20233;-73
2021/03/06 10:09:31;;;;;;;3.70;0.80;;;10.50;87.30;;;;;;5055602;28;20239;-74
2021/03/06 10:12:06;;;;;;;2.70;0.97;;;11.00;85.60;;;;;;5057419;28;20232;-75
2021/03/06 10:14:33;;;;;;;2.30;0.83;;;10.70;83.60;;;;;;5059874;28;20230;-74
2021/03/06 10:17:07;;;;;;;1.43;0.47;;;10.60;82.90;;;;;;5039350;28;20195;-74
2021/03/06 10:19:48;;;;;;;2.80;0.50;;;10.60;82.00;;;;;;5037994;28;20255;-74
2021/03/06 10:22:16;;;;;;;2.33;0.43;;;10.10;82.90;;;;;;5057565;28;20206;-74
2021/03/06 10:25:03;;;;;;;4.93;0.73;;;10.40;82.90;;;;;;5058196;28;20323;-73
2021/03/06 10:27:49;;;;;;;2.80;0.50;;;9.90;80.80;;;;;;5043991;28;20210;-73
2021/03/06 10:30:25;;;;;;;3.07;0.67;;;9.20;86.10;;;;;;5048318;28;20296;-73
2021/03/06 10:32:52;;;;;;;3.33;0.50;;;9.10;87.80;;;;;;5060583;28;20684;-73
2021/03/06 10:35:36;;;;;;;4.20;0.97;;;9.00;88.70;;;;;;5058138;28;20215;-73
2021/03/06 10:38:08;;;;;;;1.07;0.70;;;8.90;89.10;;;;;;5061125;28;20911;-74
2021/03/06 10:40:50;;;;;;;0.63;0.40;;;8.90;89.70;;;;;;5061603;28;20210;-73
2021/03/06 10:43:39;;;;;;;3.33;1.10;;;8.30;90.20;;;;;;5048633;28;20496;-73
2021/03/06 10:46:19;;;;;;;1.77;0.97;;;8.20;91.50;;;;;;5060353;28;20260;-73
2021/03/06 10:49:04;;;;;;;1.43;0.60;;;8.20;92.80;;;;;;5048594;28;20227;-74
2021/03/06 10:51:44;;;;;;;3.80;0.80;;;8.40;91.50;;;;;;5063843;28;20211;-73
2021/03/06 10:54:12;;;;;;;2.33;0.83;;;8.30;91.00;;;;;;5058755;28;20218;-72
2021/03/06 10:56:39;;;;;;;1.43;0.70;;;8.40;90.70;;;;;;5059989;28;20678;-73
2021/03/06 10:59:07;;;;;;;4.13;1.00;;;8.30;90.10;;;;;;5048336;28;20633;-73
2021/03/06 11:01:46;;;;;;;4.73;0.70;;;8.20;90.70;;;;;;5050177;28;20924;-73
2021/03/06 11:04:33;;;;;;;4.20;1.00;;;8.30;90.20;;;;;;5056890;28;20211;-72
2021/03/06 11:07:02;;;;;;;2.10;0.70;;;8.00;90.50;;;;;;5052713;28;20566;-72
2021/03/06 11:09:38;;;;;;;1.57;0.80;;;8.20;90.50;;;;;;5047052;28;20263;-73
2021/03/06 11:12:19;;;;;;;1.30;0.60;;;8.80;88.30;;;;;;5047139;28;20284;-74
2021/03/06 11:14:45;;;;;;;1.77;0.70;;;9.20;84.80;;;;;;5066152;28;20276;-73
2021/03/06 11:17:16;;;;;;;2.87;0.50;;;9.10;83.00;;;;;;5059003;28;20204;-73
2021/03/06 11:19:43;;;;;;;2.13;0.70;;;8.70;84.50;;;;;;5046010;28;20359;-73
2021/03/06 11:22:12;;;;;;;2.43;0.87;;;8.60;85.10;;;;;;5057759;28;20206;-73
2021/03/06 11:24:38;;;;;;;3.90;0.57;;;8.60;82.30;;;;;;5058618;28;20278;-73
2021/03/06 11:27:06;;;;;;;3.93;0.90;;;8.80;78.50;;;;;;5059940;28;21017;-73
2021/03/06 11:29:32;;;;;;;3.57;0.90;;;8.70;82.90;;;;;;5060969;28;20225;-72
2021/03/06 11:31:58;;;;;;;4.83;0.90;;;9.20;80.00;;;;;;5049090;28;20349;-73
2021/03/06 11:34:25;;;;;;;1.50;0.50;;;8.80;81.20;;;;;;5057436;28;20654;-73
2021/03/06 11:36:52;;;;;;;2.83;0.77;;;8.50;79.50;;;;;;5045326;28;20221;-73
2021/03/06 11:39:19;;;;;;;2.83;0.70;;;8.30;76.50;;;;;;5053797;28;20198;-72
2021/03/06 11:41:45;;;;;;;3.63;1.20;;;8.80;75.90;;;;;;5056897;28;20286;-73
2021/03/06 11:44:11;;;;;;;3.20;0.70;;;8.40;80.50;;;;;;5043970;28;20205;-72
2021/03/06 11:46:38;;;;;;;4.57;1.10;;;8.20;83.30;;;;;;5058525;28;20215;-73
2021/03/06 11:49:06;;;;;;;3.80;0.77;;;8.20;85.10;;;;;;5056051;28;20623;-73
2021/03/06 11:51:34;;;;;;;3.93;0.77;;;8.30;86.60;;;;;;5045087;28;20213;-74
2021/03/06 11:54:02;;;;;;;1.60;0.67;;;8.20;85.30;;;;;;5046901;28;20244;-72
2021/03/06 11:56:29;;;;;;;3.23;0.80;;;8.40;87.50;;;;;;5043138;28;20219;-74
2021/03/06 11:58:55;;;;;;;1.43;0.70;;;8.50;87.80;;;;;;5030469;28;20271;-72
2021/03/06 12:01:21;;;;;;;2.63;0.50;;;9.30;88.70;;;;;;5039990;28;20952;-72
2021/03/06 12:03:48;;;;;;;2.10;0.87;;;10.10;79.00;;;;;;5057648;28;20241;-73
2021/03/06 12:06:14;;;;;;;2.70;0.80;;;10.50;81.10;;;;;;5044712;28;20225;-72
2021/03/06 12:08:41;;;;;;;0.70;0.50;;;10.70;76.30;;;;;;5038907;28;20223;-73
2021/03/06 12:11:07;;;;;;;2.20;0.90;;;10.90;73.20;;;;;;5025432;28;20528;-71
2021/03/06 12:13:33;;;;;;;1.87;0.70;;;10.90;75.00;;;;;;5044497;28;20200;-72
2021/03/06 12:16:01;;;;;;;1.97;0.70;;;11.40;69.20;;;;;;5054450;28;20290;-72
2021/03/06 12:18:28;;;;;;;4.10;1.17;;;11.70;64.30;;;;;;5047592;28;20246;-72
2021/03/06 12:20:55;;;;;;;0.93;0.70;;;10.60;69.90;;;;;;5052309;28;20640;-73
2021/03/06 12:23:21;;;;;;;2.20;1.30;;;10.50;69.10;;;;;;5055342;28;20269;-73
2021/03/06 12:25:47;;;;;;;3.77;0.70;;;10.00;70.70;;;;;;5034267;28;20318;-72
2021/03/06 12:28:17;;;;;;;1.07;0.70;;;9.60;72.50;;;;;;5055857;28;20226;-73
2021/03/06 12:30:44;;;;;;;1.50;0.93;;;9.20;73.90;;;;;;5053433;28;20207;-73
2021/03/06 12:33:10;;;;;;;1.33;0.60;;;9.90;74.90;;;;;;5042696;28;20195;-73
2021/03/06 12:35:37;;;;;;;2.67;0.80;;;10.50;68.90;;;;;;5057657;28;20204;-73
2021/03/06 12:38:04;;;;;;;2.30;1.00;;;10.50;66.40;;;;;;5056794;28;20281;-73
2021/03/06 12:40:30;;;;;;;1.63;0.77;;;10.50;65.80;;;;;;5045328;28;20297;-72
2021/03/06 12:42:57;;;;;;;4.17;0.57;;;11.30;65.80;;;;;;5042443;28;20199;-73
2021/03/06 12:45:23;;;;;;;2.80;0.73;;;12.00;56.60;;;;;;5028060;28;20210;-72
2021/03/06 12:47:50;;;;;;;4.23;1.10;;;12.30;58.70;;;;;;5037487;28;20345;-74
2021/03/06 12:50:16;;;;;;;1.70;0.80;;;11.70;57.20;;;;;;5055136;28;20542;-73
2021/03/06 12:52:43;;;;;;;1.47;0.80;;;11.30;58.30;;;;;;5038586;28;20558;-72
2021/03/06 12:55:10;;;;;;;2.17;1.00;;;11.00;59.10;;;;;;5045068;28;20223;-74
2021/03/06 12:57:36;;;;;;;2.37;0.60;;;11.50;59.00;;;;;;5057093;28;20203;-75
2021/03/06 13:00:05;;;;;;;1.43;0.73;;;12.50;57.90;;;;;;5039113;28;20202;-72
2021/03/06 13:02:35;;;;;;;2.17;0.73;;;12.40;49.30;;;;;;5044487;28;20207;-73
2021/03/06 13:05:02;;;;;;;5.10;0.73;;;11.70;54.80;;;;;;5036383;28;20223;-73
2021/03/06 13:07:29;;;;;;;2.03;1.00;;;11.90;55.30;;;;;;5061360;28;20195;-71
2021/03/06 13:09:55;;;;;;;1.80;0.90;;;12.10;49.90;;;;;;5028675;28;20226;-71
2021/03/06 13:12:21;;;;;;;5.43;0.87;;;12.50;50.90;;;;;;5056195;28;20644;-73